Brockport, New York
Current Conditions -  °F | °C
As of 9:54 PM on Friday 21 Nov 2014 (Local Time) from KROC Reporting Station
Overcast Overcast  
Wind Chill: 17°   Ceiling: 3600
Heat Index: 25°   Visibility: 10mi
Dew Point: 17°   Wind: 7mph
Humidity: 72%   Direction: 240°WSW
Pressure: 30.41"   Gusts: NA
Location:  43.21°N, 77.94°W
Report Text: KROC 220254Z 24006KT 10SM OVC036 M04/M08 A3041 RMK AO2 SNE27 SLP312 BINOVC P0000 60000 T10391083 58006
Loading
Personal Weather Stations






























Interactive Weather Map New forecast layout! Learn more

10-Day Weather Forecast

Advertisements
Track Severe Weather on mobile